createdAt,value
2022-10-07T00:00:07.030Z,9.60
2022-10-07T00:01:04.197Z,9.67
2022-10-07T00:02:04.154Z,9.67
2022-10-07T00:03:04.095Z,9.74
2022-10-07T00:04:04.077Z,9.77
2022-10-07T00:05:05.034Z,9.81
2022-10-07T00:06:04.049Z,9.83
2022-10-07T00:07:04.074Z,9.81
2022-10-07T00:08:05.032Z,9.80
2022-10-07T00:09:04.535Z,9.88
2022-10-07T00:10:04.017Z,9.77
2022-10-07T00:11:04.018Z,9.77
2022-10-07T00:12:03.987Z,9.68
2022-10-07T00:13:06.126Z,9.75
2022-10-07T00:14:03.984Z,9.67
2022-10-07T00:15:27.533Z,9.67
2022-10-07T00:16:03.952Z,9.63
2022-10-07T00:17:03.982Z,9.63
2022-10-07T00:18:24.930Z,9.53
2022-10-07T00:19:06.539Z,9.49
2022-10-07T00:20:03.919Z,9.52
2022-10-07T00:21:03.895Z,9.52
2022-10-07T00:22:06.539Z,9.52
2022-10-07T00:23:18.546Z,9.37
2022-10-07T00:24:03.887Z,9.48
2022-10-07T00:25:03.851Z,9.37
2022-10-07T00:26:10.535Z,9.41
2022-10-07T00:27:04.533Z,9.35
2022-10-07T00:28:03.873Z,9.45
2022-10-07T00:29:04.533Z,9.35
2022-10-07T00:30:03.837Z,9.38
2022-10-07T00:31:03.872Z,9.42
2022-10-07T00:32:04.538Z,9.42
2022-10-07T00:33:06.538Z,9.35
2022-10-07T00:34:03.743Z,9.34
2022-10-07T00:35:04.536Z,9.24
2022-10-07T00:36:03.753Z,9.31
2022-10-07T00:37:03.748Z,9.34
2022-10-07T00:38:03.713Z,9.24
2022-10-07T00:39:03.704Z,9.24
2022-10-07T00:40:03.705Z,9.19
2022-10-07T00:41:04.554Z,9.41
2022-10-07T00:42:03.665Z,9.37
2022-10-07T00:43:04.674Z,9.45
2022-10-07T00:44:03.644Z,9.35
2022-10-07T00:45:03.635Z,9.50
2022-10-07T00:46:03.960Z,9.53
2022-10-07T00:47:03.611Z,9.58
2022-10-07T00:48:03.604Z,9.55
2022-10-07T00:49:03.603Z,9.55
2022-10-07T00:50:03.579Z,9.50
2022-10-07T00:51:03.574Z,9.52
2022-10-07T00:52:03.590Z,9.37
2022-10-07T00:53:03.573Z,9.45
2022-10-07T00:54:03.534Z,9.38
2022-10-07T00:55:03.536Z,9.34
2022-10-07T00:56:04.037Z,9.31
2022-10-07T00:57:04.567Z,9.31
2022-10-07T00:58:03.508Z,9.24
2022-10-07T00:59:03.502Z,9.24
2022-10-07T01:00:04.033Z,9.31
2022-10-07T01:01:03.596Z,9.45
2022-10-07T01:02:06.126Z,9.40
2022-10-07T01:03:04.037Z,9.38
2022-10-07T01:04:03.563Z,9.45
2022-10-07T01:05:03.425Z,9.48
2022-10-07T01:06:03.402Z,9.53
2022-10-07T01:07:04.036Z,9.53
2022-10-07T01:08:03.379Z,9.50
2022-10-07T01:09:03.572Z,9.68
2022-10-07T01:10:03.358Z,9.65
2022-10-07T01:11:24.356Z,9.65
2022-10-07T01:12:04.036Z,9.63
2022-10-07T01:13:03.331Z,9.70
2022-10-07T01:14:03.340Z,9.60
2022-10-07T01:15:03.310Z,9.68
2022-10-07T01:16:03.316Z,9.59
2022-10-07T01:17:03.329Z,9.62
2022-10-07T01:18:03.291Z,9.71
2022-10-07T01:19:03.256Z,9.63
2022-10-07T01:20:03.269Z,9.65
2022-10-07T01:21:05.316Z,9.67
2022-10-07T01:22:03.235Z,9.60
2022-10-07T01:23:03.223Z,9.52
2022-10-07T01:24:06.038Z,9.53
2022-10-07T01:25:03.208Z,9.53
2022-10-07T01:26:03.204Z,9.48
2022-10-07T01:27:04.028Z,9.41
2022-10-07T01:28:03.217Z,9.42
2022-10-07T01:29:03.156Z,9.37
2022-10-07T01:30:03.153Z,9.38
2022-10-07T01:31:03.193Z,9.34
2022-10-07T01:32:03.133Z,9.30
2022-10-07T01:33:04.048Z,9.30
2022-10-07T01:34:03.118Z,9.23
2022-10-07T01:35:03.564Z,9.27
2022-10-07T01:36:04.039Z,9.24
2022-10-07T01:37:03.062Z,9.24
2022-10-07T01:38:03.057Z,9.24
2022-10-07T01:39:03.053Z,9.24
2022-10-07T01:40:03.075Z,9.24
2022-10-07T01:41:09.537Z,9.27
2022-10-07T01:42:03.014Z,9.27
2022-10-07T01:43:03.537Z,9.30
2022-10-07T01:44:03.543Z,9.32
2022-10-07T01:45:02.995Z,9.32
2022-10-07T01:46:02.979Z,9.32
2022-10-07T01:47:02.959Z,9.34
2022-10-07T01:48:05.541Z,9.45
2022-10-07T01:49:03.071Z,9.37
2022-10-07T01:50:03.556Z,9.41
2022-10-07T01:51:05.543Z,9.50
2022-10-07T01:52:02.903Z,9.41
2022-10-07T01:53:02.894Z,9.38
2022-10-07T01:54:02.874Z,9.38
2022-10-07T01:55:02.880Z,9.42
2022-10-07T01:56:02.865Z,9.38
2022-10-07T01:57:03.539Z,9.41
2022-10-07T01:58:02.870Z,9.48
2022-10-07T01:59:02.835Z,9.38
2022-10-07T02:00:02.839Z,9.44
2022-10-07T02:01:02.851Z,9.32
2022-10-07T02:02:02.803Z,9.41
2022-10-07T02:03:02.784Z,9.48
2022-10-07T02:04:03.608Z,9.48
2022-10-07T02:05:05.561Z,9.52
2022-10-07T02:06:02.772Z,9.53
2022-10-07T02:07:02.768Z,9.50
2022-10-07T02:08:04.032Z,9.52
2022-10-07T02:09:05.542Z,9.55
2022-10-07T02:10:23.702Z,9.53
2022-10-07T02:11:03.716Z,9.52
2022-10-07T02:12:02.685Z,9.53
2022-10-07T02:13:03.066Z,9.56
2022-10-07T02:14:02.664Z,9.53
2022-10-07T02:15:02.652Z,9.55
2022-10-07T02:16:02.800Z,9.45
2022-10-07T02:17:02.649Z,9.55
2022-10-07T02:18:02.634Z,9.50
2022-10-07T02:19:02.607Z,9.42
2022-10-07T02:20:04.582Z,9.37
2022-10-07T02:21:02.603Z,9.38
2022-10-07T02:22:04.577Z,9.38
2022-10-07T02:23:02.567Z,9.42
2022-10-07T02:24:02.564Z,9.38
2022-10-07T02:25:02.547Z,9.42
2022-10-07T02:26:02.529Z,9.34
2022-10-07T02:27:03.051Z,9.41
2022-10-07T02:28:05.125Z,9.40
2022-10-07T02:29:02.510Z,9.32
2022-10-07T02:30:09.047Z,9.32
2022-10-07T02:31:09.136Z,9.32
2022-10-07T02:32:02.485Z,9.26
2022-10-07T02:33:02.449Z,9.24
2022-10-07T02:34:02.473Z,9.23
2022-10-07T02:35:02.566Z,9.23
2022-10-07T02:36:23.552Z,9.23
2022-10-07T02:37:02.408Z,9.30
2022-10-07T02:38:05.034Z,9.35
2022-10-07T02:39:03.042Z,9.26
2022-10-07T02:40:02.382Z,9.31
2022-10-07T02:41:02.568Z,9.32
2022-10-07T02:42:05.050Z,9.26
2022-10-07T02:43:02.339Z,9.30
2022-10-07T02:44:02.336Z,9.35
2022-10-07T02:45:02.338Z,9.24
2022-10-07T02:46:03.140Z,9.26
2022-10-07T02:47:02.303Z,9.24
2022-10-07T02:48:03.052Z,9.26
2022-10-07T02:49:02.274Z,9.16
2022-10-07T02:50:02.294Z,9.24
2022-10-07T02:51:05.039Z,9.22
2022-10-07T02:52:02.281Z,9.27
2022-10-07T02:53:17.050Z,9.20
2022-10-07T02:54:03.042Z,9.16
2022-10-07T02:55:02.571Z,9.06
2022-10-07T02:56:03.238Z,9.15
2022-10-07T02:57:02.188Z,9.08
2022-10-07T02:58:02.182Z,9.06
2022-10-07T02:59:03.063Z,9.08
2022-10-07T03:00:03.565Z,8.97
2022-10-07T03:01:03.054Z,8.96
2022-10-07T03:02:05.109Z,8.94
2022-10-07T03:03:02.143Z,8.93
2022-10-07T03:04:02.206Z,8.97
2022-10-07T03:05:02.102Z,9.04
2022-10-07T03:06:03.040Z,8.96
2022-10-07T03:07:03.078Z,9.03
2022-10-07T03:08:02.085Z,9.04
2022-10-07T03:09:17.050Z,9.06
2022-10-07T03:10:05.044Z,9.10
2022-10-07T03:11:02.034Z,9.08
2022-10-07T03:12:02.044Z,9.19
2022-10-07T03:13:02.076Z,9.12
2022-10-07T03:14:02.542Z,9.15
2022-10-07T03:15:01.999Z,9.16
2022-10-07T03:16:02.097Z,9.27
2022-10-07T03:17:04.553Z,9.23
2022-10-07T03:18:01.960Z,9.32
2022-10-07T03:19:02.071Z,9.30
2022-10-07T03:20:01.957Z,9.27
2022-10-07T03:21:01.929Z,9.35
2022-10-07T03:22:01.916Z,9.26
2022-10-07T03:23:01.935Z,9.24
2022-10-07T03:24:01.934Z,9.31
2022-10-07T03:25:01.890Z,9.31
2022-10-07T03:26:04.549Z,9.24
2022-10-07T03:27:01.863Z,9.24
2022-10-07T03:28:01.906Z,9.34
2022-10-07T03:29:04.617Z,9.26
2022-10-07T03:30:01.833Z,9.31
2022-10-07T03:31:01.834Z,9.31
2022-10-07T03:32:04.542Z,9.26
2022-10-07T03:33:04.150Z,9.26
2022-10-07T03:34:02.072Z,9.27
2022-10-07T03:35:01.779Z,9.27
2022-10-07T03:36:04.543Z,9.35
2022-10-07T03:37:01.752Z,9.30
2022-10-07T03:38:01.752Z,9.27
2022-10-07T03:39:04.566Z,9.24
2022-10-07T03:40:08.548Z,9.27
2022-10-07T03:41:02.572Z,9.34
2022-10-07T03:42:01.702Z,9.30
2022-10-07T03:43:01.689Z,9.23
2022-10-07T03:44:04.544Z,9.23
2022-10-07T03:45:02.748Z,9.31
2022-10-07T03:46:01.711Z,9.20
2022-10-07T03:47:02.080Z,9.24
2022-10-07T03:48:01.639Z,9.22
2022-10-07T03:49:01.635Z,9.23
2022-10-07T03:50:02.550Z,9.26
2022-10-07T03:51:01.617Z,9.26
2022-10-07T03:52:01.617Z,9.16
2022-10-07T03:53:01.595Z,9.20
2022-10-07T03:54:02.560Z,9.19
2022-10-07T03:55:02.563Z,9.15
2022-10-07T03:56:01.553Z,9.15
2022-10-07T03:57:01.552Z,9.10
2022-10-07T03:58:01.522Z,9.19
2022-10-07T03:59:01.532Z,9.15
2022-10-07T04:00:01.503Z,9.13
2022-10-07T04:01:01.495Z,9.16
2022-10-07T04:02:02.578Z,9.15
2022-10-07T04:03:04.066Z,9.22
2022-10-07T04:04:01.616Z,9.20
2022-10-07T04:05:01.445Z,9.15
2022-10-07T04:06:01.435Z,9.20
2022-10-07T04:07:01.424Z,9.15
2022-10-07T04:08:01.409Z,9.19
2022-10-07T04:09:01.399Z,9.19
2022-10-07T04:10:01.581Z,9.12
2022-10-07T04:11:02.071Z,9.17
2022-10-07T04:12:01.368Z,9.19
2022-10-07T04:13:01.366Z,9.16
2022-10-07T04:14:01.364Z,9.16
2022-10-07T04:15:01.344Z,9.15
2022-10-07T04:16:01.420Z,9.20
2022-10-07T04:17:01.320Z,9.31
2022-10-07T04:18:01.309Z,9.24
2022-10-07T04:19:02.061Z,9.19
2022-10-07T04:20:01.296Z,9.17
2022-10-07T04:21:01.275Z,9.26
2022-10-07T04:22:07.603Z,9.24
2022-10-07T04:23:03.055Z,9.26
2022-10-07T04:24:01.258Z,9.13
2022-10-07T04:25:01.229Z,9.22
2022-10-07T04:26:23.071Z,9.27
2022-10-07T04:27:09.096Z,9.41
2022-10-07T04:28:01.491Z,9.40
2022-10-07T04:29:01.195Z,9.38
2022-10-07T04:30:01.209Z,9.41
2022-10-07T04:31:01.249Z,9.38
2022-10-07T04:32:01.157Z,9.35
2022-10-07T04:33:01.141Z,9.42
2022-10-07T04:34:01.105Z,9.40
2022-10-07T04:35:01.121Z,9.48
2022-10-07T04:36:04.041Z,9.35
2022-10-07T04:37:01.428Z,9.32
2022-10-07T04:38:01.075Z,9.35
2022-10-07T04:39:04.062Z,9.34
2022-10-07T04:40:01.450Z,9.38
2022-10-07T04:41:01.053Z,9.44
2022-10-07T04:42:01.063Z,9.42
2022-10-07T04:43:01.055Z,9.44
2022-10-07T04:44:01.549Z,9.41
2022-10-07T04:45:03.554Z,9.38
2022-10-07T04:46:00.994Z,9.41
2022-10-07T04:47:01.167Z,9.38
2022-10-07T04:48:01.082Z,9.42
2022-10-07T04:49:00.967Z,9.45
2022-10-07T04:50:02.023Z,9.38
2022-10-07T04:51:00.948Z,9.41
2022-10-07T04:52:01.554Z,9.37
2022-10-07T04:53:00.938Z,9.48
2022-10-07T04:54:00.930Z,9.40
2022-10-07T04:55:00.896Z,9.38
2022-10-07T04:56:00.894Z,9.40
2022-10-07T04:57:00.904Z,9.48
2022-10-07T04:58:00.883Z,9.35
2022-10-07T04:59:00.850Z,9.41
2022-10-07T05:00:01.559Z,9.48
2022-10-07T05:01:00.939Z,9.41
2022-10-07T05:02:03.589Z,9.37
2022-10-07T05:03:00.819Z,9.38
2022-10-07T05:04:21.808Z,9.44
2022-10-07T05:05:00.786Z,9.22
2022-10-07T05:06:05.206Z,9.26
2022-10-07T05:07:00.784Z,9.30
2022-10-07T05:08:01.546Z,9.27
2022-10-07T05:09:00.745Z,9.24
2022-10-07T05:10:00.727Z,9.24
2022-10-07T05:11:01.552Z,9.27
2022-10-07T05:12:01.541Z,9.24
2022-10-07T05:13:00.721Z,9.17
2022-10-07T05:14:03.567Z,9.15
2022-10-07T05:15:00.701Z,9.23
2022-10-07T05:16:00.732Z,9.16
2022-10-07T05:17:07.553Z,9.13
2022-10-07T05:18:00.675Z,9.16
2022-10-07T05:19:02.587Z,9.17
2022-10-07T05:20:02.578Z,9.15
2022-10-07T05:21:00.611Z,9.12
2022-10-07T05:22:00.599Z,9.17
2022-10-07T05:23:07.554Z,9.10
2022-10-07T05:24:01.575Z,9.12
2022-10-07T05:25:00.574Z,9.13
2022-10-07T05:26:07.547Z,9.06
2022-10-07T05:27:00.553Z,9.16
2022-10-07T05:28:00.596Z,9.10
2022-10-07T05:29:00.529Z,9.12
2022-10-07T05:30:00.562Z,9.06
2022-10-07T05:31:00.523Z,9.04
2022-10-07T05:32:04.836Z,9.06
2022-10-07T05:33:01.044Z,9.10
2022-10-07T05:34:01.077Z,9.12
2022-10-07T05:35:00.462Z,9.08
2022-10-07T05:36:01.054Z,9.08
2022-10-07T05:37:07.052Z,9.20
2022-10-07T05:38:00.452Z,9.13
2022-10-07T05:39:01.050Z,9.16
2022-10-07T05:40:00.414Z,9.20
2022-10-07T05:41:00.405Z,9.22
2022-10-07T05:42:00.423Z,9.20
2022-10-07T05:43:00.376Z,9.24
2022-10-07T05:44:00.359Z,9.10
2022-10-07T05:45:01.061Z,9.19
2022-10-07T05:46:00.419Z,9.16
2022-10-07T05:47:01.056Z,9.19
2022-10-07T05:48:00.334Z,9.26
2022-10-07T05:49:00.307Z,9.20
2022-10-07T05:50:00.289Z,9.30
2022-10-07T05:51:00.291Z,9.17
2022-10-07T05:52:00.275Z,9.20
2022-10-07T05:53:03.059Z,9.27
2022-10-07T05:54:00.269Z,9.20
2022-10-07T05:55:00.239Z,9.27
2022-10-07T05:56:01.055Z,9.23
2022-10-07T05:57:00.234Z,9.15
2022-10-07T05:58:01.055Z,9.24
2022-10-07T05:59:00.211Z,9.23
2022-10-07T06:00:00.190Z,9.24
2022-10-07T06:01:05.396Z,9.17
2022-10-07T06:02:01.301Z,9.27
2022-10-07T06:03:00.314Z,9.34
2022-10-07T06:04:00.167Z,9.26
2022-10-07T06:05:00.145Z,9.27
2022-10-07T06:06:00.140Z,9.26
2022-10-07T06:07:00.126Z,9.24
2022-10-07T06:08:00.101Z,9.30
2022-10-07T06:09:01.048Z,9.20
2022-10-07T06:10:00.113Z,9.27
2022-10-07T06:11:00.084Z,9.23
2022-10-07T06:12:00.085Z,9.31
2022-10-07T06:13:00.104Z,9.32
2022-10-07T06:14:00.032Z,9.34
2022-10-07T06:15:00.562Z,9.30
2022-10-07T06:16:00.030Z,9.42
2022-10-07T06:17:00.611Z,9.40
2022-10-07T06:18:00.102Z,9.40
2022-10-07T06:19:00.054Z,9.38
2022-10-07T06:20:00.554Z,9.38
2022-10-07T06:21:00.551Z,9.41
2022-10-07T06:22:27.555Z,9.45
2022-10-07T06:22:59.930Z,9.37
2022-10-07T06:23:59.954Z,9.35
2022-10-07T06:24:59.910Z,9.41
2022-10-07T06:25:59.905Z,9.50
2022-10-07T06:27:00.564Z,9.49
2022-10-07T06:28:00.618Z,9.44
2022-10-07T06:28:59.869Z,9.56
2022-10-07T06:29:59.883Z,9.48
2022-10-07T06:30:59.932Z,9.55
2022-10-07T06:32:00.556Z,9.55
2022-10-07T06:33:02.668Z,9.60
2022-10-07T06:33:59.816Z,9.62
2022-10-07T06:35:00.548Z,9.60
2022-10-07T06:36:04.275Z,9.55
2022-10-07T06:37:14.558Z,9.67
2022-10-07T06:38:00.551Z,9.59
2022-10-07T06:39:02.556Z,9.65
2022-10-07T06:40:00.554Z,9.70
2022-10-07T06:40:59.747Z,9.70
2022-10-07T06:41:59.742Z,9.63
2022-10-07T06:42:59.702Z,9.63
2022-10-07T06:43:59.707Z,9.73
2022-10-07T06:44:59.690Z,9.73
2022-10-07T06:46:00.159Z,9.77
2022-10-07T06:46:59.670Z,9.80
2022-10-07T06:47:59.658Z,9.78
2022-10-07T06:49:00.094Z,9.81
2022-10-07T06:49:59.639Z,9.80
2022-10-07T06:50:59.622Z,9.88
2022-10-07T06:51:59.634Z,9.83
2022-10-07T06:52:59.615Z,9.89
2022-10-07T06:53:59.619Z,9.91
2022-10-07T06:54:59.583Z,9.95
2022-10-07T06:55:59.573Z,10.04
2022-10-07T06:56:59.563Z,9.95
2022-10-07T06:57:59.714Z,9.96
2022-10-07T06:58:59.566Z,9.98
2022-10-07T06:59:59.556Z,10.07
2022-10-07T07:01:00.107Z,10.14
2022-10-07T07:02:06.087Z,10.06
2022-10-07T07:02:59.497Z,10.14
2022-10-07T07:03:59.487Z,10.18
2022-10-07T07:04:59.603Z,10.17
2022-10-07T07:05:59.491Z,10.20
2022-10-07T07:06:59.453Z,10.18
2022-10-07T07:07:59.444Z,10.20
2022-10-07T07:08:59.436Z,10.22
2022-10-07T07:09:59.444Z,10.20
2022-10-07T07:11:00.057Z,10.34
2022-10-07T07:11:59.399Z,10.36
2022-10-07T07:13:06.064Z,10.31
2022-10-07T07:13:59.372Z,10.38
2022-10-07T07:14:59.379Z,10.39
2022-10-07T07:15:59.353Z,10.46
2022-10-07T07:16:59.359Z,10.44
2022-10-07T07:18:00.071Z,10.46
2022-10-07T07:19:02.055Z,10.47
2022-10-07T07:19:59.317Z,10.51
2022-10-07T07:20:59.593Z,10.62
2022-10-07T07:21:59.293Z,10.63
2022-10-07T07:23:00.061Z,10.62
2022-10-07T07:23:59.269Z,10.58
2022-10-07T07:25:00.557Z,10.66
2022-10-07T07:26:00.056Z,10.68
2022-10-07T07:26:59.255Z,10.73
2022-10-07T07:27:59.287Z,10.73
2022-10-07T07:29:20.214Z,10.73
2022-10-07T07:30:06.061Z,10.81
2022-10-07T07:31:00.268Z,10.78
2022-10-07T07:31:59.206Z,10.81
2022-10-07T07:32:59.175Z,10.94
2022-10-07T07:34:06.047Z,10.99
2022-10-07T07:35:02.057Z,10.88
2022-10-07T07:35:59.140Z,11.02
2022-10-07T07:37:00.199Z,11.08
2022-10-07T07:37:59.138Z,11.01
2022-10-07T07:38:59.128Z,11.05
2022-10-07T07:39:59.086Z,11.13
2022-10-07T07:40:59.079Z,11.17
2022-10-07T07:41:59.072Z,11.16
2022-10-07T07:42:59.088Z,11.23
2022-10-07T07:43:59.050Z,11.24
2022-10-07T07:44:59.042Z,11.21
2022-10-07T07:45:59.072Z,11.30
2022-10-07T07:46:59.548Z,11.23
2022-10-07T07:47:59.030Z,11.30
2022-10-07T07:48:59.013Z,11.33
2022-10-07T07:49:59.082Z,11.33
2022-10-07T07:50:58.971Z,11.44
2022-10-07T07:52:01.555Z,11.42
2022-10-07T07:53:05.576Z,11.51
2022-10-07T07:53:59.552Z,11.54
2022-10-07T07:54:58.969Z,11.62
2022-10-07T07:55:58.915Z,11.59
2022-10-07T07:56:58.899Z,11.66
2022-10-07T07:57:59.550Z,11.72
2022-10-07T07:59:01.560Z,11.82
2022-10-07T07:59:58.873Z,11.77
2022-10-07T08:00:59.968Z,11.72
2022-10-07T08:01:58.846Z,11.87
2022-10-07T08:02:59.556Z,11.90
2022-10-07T08:03:58.834Z,11.85
2022-10-07T08:04:58.825Z,11.94
2022-10-07T08:05:58.802Z,11.98
2022-10-07T08:06:59.082Z,11.98
2022-10-07T08:07:59.549Z,12.05
2022-10-07T08:08:58.791Z,12.07
2022-10-07T08:09:58.805Z,12.07
2022-10-07T08:10:58.757Z,12.12
2022-10-07T08:11:59.563Z,12.11
2022-10-07T08:12:59.569Z,12.16
2022-10-07T08:13:58.712Z,12.23
2022-10-07T08:14:58.731Z,12.30
2022-10-07T08:15:59.127Z,12.25
2022-10-07T08:17:01.557Z,12.33
2022-10-07T08:18:04.086Z,12.37
2022-10-07T08:18:58.672Z,12.46
2022-10-07T08:19:58.653Z,12.46
2022-10-07T08:20:58.665Z,12.52
2022-10-07T08:21:58.644Z,12.62
2022-10-07T08:22:59.123Z,12.58
2022-10-07T08:23:58.620Z,12.63
2022-10-07T08:24:58.649Z,12.62
2022-10-07T08:25:58.589Z,12.71
2022-10-07T08:26:58.601Z,12.73
2022-10-07T08:27:59.614Z,12.74
2022-10-07T08:29:01.077Z,12.79
2022-10-07T08:29:58.547Z,12.85
2022-10-07T08:30:58.548Z,12.88
2022-10-07T08:31:58.519Z,12.85
2022-10-07T08:33:01.534Z,12.94
2022-10-07T08:33:58.500Z,12.89
2022-10-07T08:34:58.499Z,12.94
2022-10-07T08:35:58.485Z,12.92
2022-10-07T08:36:58.491Z,12.99
2022-10-07T08:37:58.459Z,13.06
2022-10-07T08:38:58.443Z,13.09
2022-10-07T08:39:58.433Z,13.07
2022-10-07T08:40:59.082Z,13.14
2022-10-07T08:41:58.444Z,13.19
2022-10-07T08:42:58.406Z,13.19
2022-10-07T08:44:01.048Z,13.24
2022-10-07T08:44:58.372Z,13.29
2022-10-07T08:45:58.405Z,13.29
2022-10-07T08:46:58.359Z,13.31
2022-10-07T08:47:58.355Z,13.29
2022-10-07T08:48:58.371Z,13.35
2022-10-07T08:49:58.348Z,13.38
2022-10-07T08:51:01.063Z,13.35
2022-10-07T08:51:58.299Z,13.38
2022-10-07T08:52:58.292Z,13.39
2022-10-07T08:53:59.058Z,13.47
2022-10-07T08:54:58.612Z,13.57
2022-10-07T08:55:58.588Z,13.62
2022-10-07T08:56:58.377Z,13.57
2022-10-07T08:57:59.059Z,13.66
2022-10-07T08:58:58.229Z,13.71
2022-10-07T09:00:01.057Z,13.73
2022-10-07T09:01:01.059Z,13.73
2022-10-07T09:02:01.062Z,13.81
2022-10-07T09:02:58.247Z,13.72
2022-10-07T09:03:59.054Z,13.81
2022-10-07T09:04:58.175Z,13.83
2022-10-07T09:05:59.105Z,13.93
2022-10-07T09:06:58.153Z,14.05
2022-10-07T09:07:58.126Z,14.02
2022-10-07T09:08:58.117Z,13.94
2022-10-07T09:09:59.057Z,14.11
2022-10-07T09:10:58.121Z,14.12
2022-10-07T09:12:01.059Z,14.17
2022-10-07T09:12:58.129Z,14.13
2022-10-07T09:13:58.589Z,14.31
2022-10-07T09:14:58.560Z,14.30
2022-10-07T09:15:58.573Z,14.34
2022-10-07T09:16:58.566Z,14.36
2022-10-07T09:17:58.595Z,14.36
2022-10-07T09:19:04.565Z,14.41
2022-10-07T09:19:58.566Z,14.54
2022-10-07T09:20:58.561Z,14.42
2022-10-07T09:21:58.611Z,14.52
2022-10-07T09:23:04.561Z,14.53
2022-10-07T09:23:59.597Z,14.54
2022-10-07T09:25:09.013Z,14.57
2022-10-07T09:25:58.946Z,14.61
2022-10-07T09:26:59.628Z,14.49
2022-10-07T09:28:04.638Z,14.57
2022-10-07T09:29:00.564Z,14.63
2022-10-07T09:29:59.599Z,14.63
2022-10-07T09:31:00.605Z,14.69
2022-10-07T09:32:00.576Z,14.66
2022-10-07T09:33:12.560Z,14.71
2022-10-07T09:34:19.560Z,14.63
2022-10-07T09:35:01.090Z,14.78
2022-10-07T09:36:18.836Z,14.79
2022-10-07T09:37:00.557Z,14.79
2022-10-07T09:38:00.570Z,14.72
2022-10-07T09:39:04.569Z,14.74
2022-10-07T09:39:58.088Z,14.87
2022-10-07T09:40:57.774Z,14.91
2022-10-07T09:41:57.757Z,14.95
2022-10-07T09:42:57.746Z,15.05
2022-10-07T09:43:57.747Z,14.94
2022-10-07T09:44:57.741Z,14.95
2022-10-07T09:45:57.750Z,15.01
2022-10-07T09:46:57.730Z,15.09
2022-10-07T09:47:57.692Z,15.11
2022-10-07T09:48:57.673Z,15.11
2022-10-07T09:49:57.679Z,15.25
2022-10-07T09:50:57.676Z,15.31
2022-10-07T09:52:00.571Z,15.35
2022-10-07T09:52:57.627Z,15.44
2022-10-07T09:53:57.618Z,15.38
2022-10-07T09:54:57.616Z,15.43
2022-10-07T09:55:57.621Z,15.58
2022-10-07T09:56:57.610Z,15.58
2022-10-07T09:57:58.575Z,15.70
2022-10-07T09:58:57.564Z,15.64
2022-10-07T09:59:57.582Z,15.84
2022-10-07T10:00:57.542Z,15.89
2022-10-07T10:01:57.630Z,15.80
2022-10-07T10:03:00.168Z,15.93
2022-10-07T10:04:01.080Z,15.93
2022-10-07T10:04:57.506Z,15.89
2022-10-07T10:05:58.070Z,15.78
2022-10-07T10:06:57.480Z,15.89
2022-10-07T10:08:12.089Z,15.78
2022-10-07T10:08:57.485Z,15.77
2022-10-07T10:09:57.449Z,15.86
2022-10-07T10:11:12.065Z,15.91
2022-10-07T10:12:57.430Z,16.10
2022-10-07T10:13:57.453Z,16.13
2022-10-07T10:14:57.390Z,16.25
2022-10-07T10:15:57.459Z,16.27
2022-10-07T10:16:57.368Z,16.26
2022-10-07T10:18:04.211Z,16.34
2022-10-07T10:18:57.372Z,16.34
2022-10-07T10:19:57.338Z,16.36
2022-10-07T10:21:03.122Z,16.37
2022-10-07T10:21:57.321Z,16.42
2022-10-07T10:23:04.064Z,16.50
2022-10-07T10:23:58.083Z,16.42
2022-10-07T10:24:57.310Z,16.50
2022-10-07T10:25:57.269Z,16.67
2022-10-07T10:26:58.066Z,16.55
2022-10-07T10:27:58.114Z,16.55
2022-10-07T10:28:58.073Z,16.51
2022-10-07T10:29:57.263Z,16.54
2022-10-07T10:30:57.341Z,16.59
2022-10-07T10:31:57.223Z,16.80
2022-10-07T10:32:57.204Z,16.87
2022-10-07T10:33:57.178Z,16.90
2022-10-07T10:34:58.115Z,16.98
2022-10-07T10:36:00.082Z,16.95
2022-10-07T10:36:58.208Z,16.85
2022-10-07T10:37:58.089Z,16.78
2022-10-07T10:38:57.141Z,16.82
2022-10-07T10:39:57.124Z,16.81
2022-10-07T10:40:57.127Z,16.88
2022-10-07T10:41:58.067Z,16.87
2022-10-07T10:42:58.069Z,16.98
2022-10-07T10:44:11.575Z,17.00
2022-10-07T10:45:11.605Z,16.95
2022-10-07T10:45:57.097Z,16.99
2022-10-07T10:46:57.613Z,16.92
2022-10-07T10:47:57.588Z,16.92
2022-10-07T10:48:57.019Z,17.00
2022-10-07T10:49:57.101Z,17.03
2022-10-07T10:50:57.574Z,17.20
2022-10-07T10:51:57.100Z,17.21
2022-10-07T10:52:56.979Z,17.28
2022-10-07T10:53:56.963Z,17.28
2022-10-07T10:54:56.954Z,17.27
2022-10-07T10:55:59.570Z,17.14
2022-10-07T10:56:57.104Z,17.06
2022-10-07T10:58:00.535Z,17.06
2022-10-07T10:59:11.591Z,17.10
2022-10-07T10:59:57.576Z,17.18
2022-10-07T11:00:59.728Z,17.18
2022-10-07T11:01:56.932Z,17.42
2022-10-07T11:02:57.136Z,17.43
2022-10-07T11:03:56.890Z,17.43
2022-10-07T11:04:57.578Z,17.32
2022-10-07T11:05:57.575Z,17.25
2022-10-07T11:06:56.834Z,17.42
2022-10-07T11:07:56.833Z,17.45
2022-10-07T11:08:56.809Z,17.57
2022-10-07T11:09:56.787Z,17.53
2022-10-07T11:10:57.582Z,17.54
2022-10-07T11:11:56.785Z,17.43
2022-10-07T11:12:57.582Z,17.55
2022-10-07T11:13:56.772Z,17.43
2022-10-07T11:14:57.879Z,17.30
2022-10-07T11:15:57.622Z,17.28
2022-10-07T11:16:57.582Z,17.32
2022-10-07T11:17:56.707Z,17.36
2022-10-07T11:18:57.074Z,17.51
2022-10-07T11:19:56.704Z,17.68
2022-10-07T11:20:56.683Z,17.51
2022-10-07T11:22:17.665Z,17.54
2022-10-07T11:22:56.663Z,17.55
2022-10-07T11:23:57.097Z,17.62
2022-10-07T11:24:56.626Z,17.71
2022-10-07T11:25:56.630Z,17.54
2022-10-07T11:26:57.109Z,17.46
2022-10-07T11:27:56.625Z,17.62
2022-10-07T11:28:56.597Z,17.63
2022-10-07T11:29:57.078Z,17.63
2022-10-07T11:31:11.117Z,17.51
2022-10-07T11:31:56.571Z,17.62
2022-10-07T11:32:56.553Z,17.60
2022-10-07T11:33:57.083Z,17.74
2022-10-07T11:34:56.531Z,17.92
2022-10-07T11:35:57.094Z,17.95
2022-10-07T11:36:56.618Z,17.96
2022-10-07T11:37:56.489Z,17.91
2022-10-07T11:38:56.479Z,17.91
2022-10-07T11:39:56.609Z,17.83
2022-10-07T11:40:56.461Z,17.79
2022-10-07T11:41:56.440Z,17.76
2022-10-07T11:42:57.085Z,17.70
2022-10-07T11:43:56.419Z,17.77
2022-10-07T11:44:56.617Z,17.91
2022-10-07T11:46:05.747Z,17.96
2022-10-07T11:46:56.456Z,17.91
2022-10-07T11:47:56.374Z,18.14
2022-10-07T11:48:56.372Z,18.23
2022-10-07T11:49:56.355Z,18.20
2022-10-07T11:50:56.606Z,18.13
2022-10-07T11:51:59.102Z,18.01
2022-10-07T11:52:56.606Z,18.16
2022-10-07T11:53:59.085Z,18.11
2022-10-07T11:54:59.082Z,18.13
2022-10-07T11:55:57.085Z,18.19
2022-10-07T11:56:57.083Z,18.16
2022-10-07T11:57:59.091Z,18.13
2022-10-07T11:59:10.614Z,18.10
2022-10-07T11:59:56.243Z,18.29
2022-10-07T12:00:56.266Z,18.35
2022-10-07T12:01:59.150Z,18.36
2022-10-07T12:02:56.309Z,18.47
2022-10-07T12:03:56.196Z,18.41
2022-10-07T12:04:56.195Z,18.46
2022-10-07T12:05:57.079Z,18.53
2022-10-07T12:06:56.180Z,18.62
2022-10-07T12:07:59.156Z,18.68
2022-10-07T12:08:56.143Z,18.84
2022-10-07T12:09:56.140Z,18.60
2022-10-07T12:10:57.088Z,18.56
2022-10-07T12:11:56.113Z,18.49
2022-10-07T12:12:56.133Z,18.42
2022-10-07T12:13:56.092Z,18.32
2022-10-07T12:14:56.079Z,18.41
2022-10-07T12:15:56.149Z,18.51
2022-10-07T12:16:56.079Z,18.38
2022-10-07T12:17:56.111Z,18.36
2022-10-07T12:18:56.043Z,18.42
2022-10-07T12:19:58.589Z,18.35
2022-10-07T12:21:02.594Z,18.39
2022-10-07T12:21:56.003Z,18.56
2022-10-07T12:22:56.031Z,18.42
2022-10-07T12:23:56.000Z,18.56
2022-10-07T12:24:56.594Z,18.42
2022-10-07T12:25:55.958Z,18.51
2022-10-07T12:26:56.596Z,18.56
2022-10-07T12:27:55.957Z,18.54
2022-10-07T12:28:55.952Z,18.41
2022-10-07T12:29:56.590Z,18.46
2022-10-07T12:30:56.590Z,18.49
2022-10-07T12:31:56.005Z,18.57
2022-10-07T12:32:56.594Z,18.59
2022-10-07T12:33:56.115Z,18.59
2022-10-07T12:34:59.621Z,18.60
2022-10-07T12:35:56.594Z,18.50
2022-10-07T12:36:58.589Z,18.66
2022-10-07T12:37:56.585Z,18.59
2022-10-07T12:38:56.142Z,18.65
2022-10-07T12:39:56.618Z,18.68
2022-10-07T12:40:58.594Z,18.62
2022-10-07T12:42:10.591Z,18.68
2022-10-07T12:42:55.780Z,18.57
2022-10-07T12:43:55.783Z,18.66
2022-10-07T12:44:56.118Z,18.76
2022-10-07T12:45:56.648Z,18.99
2022-10-07T12:46:56.591Z,19.10
2022-10-07T12:47:55.730Z,19.31
2022-10-07T12:48:56.600Z,19.45
2022-10-07T12:49:57.624Z,19.53
2022-10-07T12:50:55.694Z,19.38
2022-10-07T12:51:55.675Z,19.21
2022-10-07T12:52:56.598Z,19.17
2022-10-07T12:53:56.592Z,19.09
2022-10-07T12:54:55.688Z,19.23
2022-10-07T12:55:55.648Z,19.31
2022-10-07T12:56:58.609Z,19.38
2022-10-07T12:57:55.617Z,19.35
2022-10-07T12:58:55.601Z,19.42
2022-10-07T12:59:55.590Z,19.47
2022-10-07T13:00:55.767Z,19.30
2022-10-07T13:01:58.316Z,19.12
2022-10-07T13:02:55.560Z,19.16
2022-10-07T13:03:55.546Z,19.09
2022-10-07T13:04:58.090Z,19.21
2022-10-07T13:05:55.640Z,19.13
2022-10-07T13:06:55.498Z,18.96